Magnate — H9ZN — position and weather

sailwx.info

Track history (hours):
 
Tides and Currents Weather Stations Pressure Air Temp Water Temp Dewpoint Dewpoint Depression Visibility Wind Speed Wind Dir Waves Ship Positions

Magnate

Last reported at 2015-Mar-26 16:31 UTC. Time now 2015-Apr-01 08:00 UTC.
Position N 01°16' E 104°12'.

Length 140 m; draft 5 m.

Type: Cargo ship. MMSI: 357055000.

Date/timePositionNaut miles runAvg speedWind from/ knotsBaromVisibWave heightAir tempDewpointWater temp
2015-Mar-26 16:31N 01°16' E 104°12'1010.4
2015-Mar-26 15:33N 01°15' E 104°02'8 8.4
2015-Mar-26 14:33N 01°15' E 103°54'1 0.9
2015-Mar-26 13:30N 01°16' E 103°53'0 0.0
2015-Mar-26 12:33N 01°16' E 103°53'0 0.0
2015-Mar-26 11:15N 01°16' E 103°53'0 0.0
2015-Mar-26 10:30N 01°16' E 103°53'0 0.0
2015-Mar-26 09:15N 01°16' E 103°53'0 0.0
2015-Mar-26 08:21N 01°16' E 103°53'0 0.0
2015-Mar-26 07:09N 01°16' E 103°53'0 0.0
2015-Mar-26 06:08N 01°16' E 103°53'0 0.0
2015-Mar-26 05:14N 01°16' E 103°53'0 0.0
2015-Mar-26 04:14N 01°16' E 103°53'0 0.0
2015-Mar-26 03:32N 01°16' E 103°53'0 0.0
2015-Mar-26 02:32N 01°16' E 103°53'1 0.9
2015-Mar-26 01:33N 01°15' E 103°54'4 3.4
2015-Mar-26 00:29N 01°12' E 103°52'77 9.7
2015-Mar-25 16:33N 01°41' E 102°41'1312.5
2015-Mar-25 15:33N 01°47' E 102°30'1413.0
2015-Mar-25 14:29N 01°53' E 102°17'  
Track history (hours):
 
Tides and Currents Weather Stations Pressure Air Temp Water Temp Dewpoint Dewpoint Depression Visibility Wind Speed Wind Dir Waves Ship Positions

Magnate

Last reported at 2015-Mar-26 16:31 UTC. Time now 2015-Apr-01 08:00 UTC.
Position N 01°16' E 104°12'.

Length 140 m; draft 5 m.

Type: Cargo ship. MMSI: 357055000.

Date/timePositionNaut miles runAvg speedWind from/ knotsBaromVisibWave heightAir tempDewpointWater temp
2015-Mar-26 16:31N 01°16' E 104°12'1010.4
2015-Mar-26 15:33N 01°15' E 104°02'8 8.4
2015-Mar-26 14:33N 01°15' E 103°54'1 0.9
2015-Mar-26 13:30N 01°16' E 103°53'0 0.0
2015-Mar-26 12:33N 01°16' E 103°53'0 0.0
2015-Mar-26 11:15N 01°16' E 103°53'0 0.0
2015-Mar-26 10:30N 01°16' E 103°53'0 0.0
2015-Mar-26 09:15N 01°16' E 103°53'0 0.0
2015-Mar-26 08:21N 01°16' E 103°53'0 0.0
2015-Mar-26 07:09N 01°16' E 103°53'0 0.0
2015-Mar-26 06:08N 01°16' E 103°53'0 0.0
2015-Mar-26 05:14N 01°16' E 103°53'0 0.0
2015-Mar-26 04:14N 01°16' E 103°53'0 0.0
2015-Mar-26 03:32N 01°16' E 103°53'0 0.0
2015-Mar-26 02:32N 01°16' E 103°53'1 0.9
2015-Mar-26 01:33N 01°15' E 103°54'4 3.4
2015-Mar-26 00:29N 01°12' E 103°52'77 9.7
2015-Mar-25 16:33N 01°41' E 102°41'1312.5
2015-Mar-25 15:33N 01°47' E 102°30'1413.0
2015-Mar-25 14:29N 01°53' E 102°17'  

Dump ship's entire track history